Time;durP1;ratioP1;P1;durP2;ratioP2;P2;SDS_P1;SDS_P2;PMS_P1;PMS_P2;Temp;Humidity;BMP_temperature;BMP_pressure;BME280_temperature;BME280_humidity;BME280_pressure;Samples;Min_cycle;Max_cycle;Signal;HPM_P1;HPM_P2
2023/03/06 00:01:08;;;;;;;8.57;3.85;;;;;;;2.18;96.13;100819.56;4953798;28;20035;-79
2023/03/06 00:03:34;;;;;;;4.93;3.92;;;;;;;2.20;96.02;100820.38;4948977;28;20039;-78
2023/03/06 00:06:00;;;;;;;8.65;4.30;;;;;;;2.20;96.07;100817.69;4949406;29;20117;-79
2023/03/06 00:08:27;;;;;;;6.80;3.97;;;;;;;2.18;96.70;100807.94;4948957;29;20067;-77
2023/03/06 00:10:53;;;;;;;7.75;4.07;;;;;;;2.16;96.36;100809.81;4948846;28;20090;-76
2023/03/06 00:13:18;;;;;;;8.57;4.00;;;;;;;2.15;96.25;100808.09;4950009;28;20047;-78
2023/03/06 00:15:45;;;;;;;7.85;4.18;;;;;;;2.13;96.57;100802.75;4947898;29;20160;-78
2023/03/06 00:18:11;;;;;;;8.65;4.32;;;;;;;2.16;95.95;100801.78;4948875;28;20507;-78
2023/03/06 00:20:38;;;;;;;7.32;4.15;;;;;;;2.14;96.27;100803.63;4950419;29;20034;-77
2023/03/06 00:23:04;;;;;;;8.48;4.50;;;;;;;2.12;96.19;100802.81;4950085;29;20039;-78
2023/03/06 00:25:29;;;;;;;6.43;4.18;;;;;;;2.08;96.43;100790.47;4948441;29;20118;-78
2023/03/06 00:27:55;;;;;;;7.15;4.18;;;;;;;2.06;96.32;100795.03;4948775;28;20028;-77
2023/03/06 00:30:23;;;;;;;8.13;3.72;;;;;;;2.07;96.38;100794.06;4934257;29;20206;-78
2023/03/06 00:32:49;;;;;;;7.03;4.25;;;;;;;2.06;96.55;100789.66;4949627;28;20043;-78
2023/03/06 00:35:15;;;;;;;10.10;4.05;;;;;;;2.07;96.26;100784.22;4949786;29;20046;-78
2023/03/06 00:37:43;;;;;;;7.20;4.55;;;;;;;2.04;96.13;100782.50;4948411;29;20075;-78
2023/03/06 00:40:11;;;;;;;9.43;5.03;;;;;;;2.04;96.59;100792.38;4948650;29;20567;-78
2023/03/06 00:42:37;;;;;;;7.97;4.72;;;;;;;2.06;96.71;100781.59;4947844;28;20868;-78
2023/03/06 00:45:02;;;;;;;7.10;4.50;;;;;;;2.06;96.52;100778.91;4937176;28;20114;-78
2023/03/06 00:47:28;;;;;;;7.22;4.03;;;;;;;2.02;96.56;100775.47;4950426;29;20110;-77
2023/03/06 00:49:53;;;;;;;6.00;4.18;;;;;;;1.94;96.51;100767.72;4947595;29;20043;-78
2023/03/06 00:52:18;;;;;;;10.38;4.10;;;;;;;1.87;96.08;100760.84;4950680;28;20067;-78
2023/03/06 00:54:44;;;;;;;10.00;4.63;;;;;;;1.88;95.80;100764.41;4953310;28;20042;-78
2023/03/06 00:57:09;;;;;;;9.38;5.35;;;;;;;1.82;96.37;100761.94;4953774;28;20484;-78
2023/03/06 00:59:35;;;;;;;8.45;4.70;;;;;;;1.73;96.01;100765.84;4953302;28;20043;-78
2023/03/06 01:02:01;;;;;;;8.63;4.72;;;;;;;1.66;96.76;100764.31;4954047;28;20118;-77
2023/03/06 01:04:27;;;;;;;9.70;4.88;;;;;;;1.61;97.09;100767.16;4951651;29;20031;-78
2023/03/06 01:06:52;;;;;;;9.73;5.88;;;;;;;1.56;96.78;100765.59;4953541;29;20502;-78
2023/03/06 01:09:18;;;;;;;8.40;5.07;;;;;;;1.52;96.33;100762.13;4940418;29;20503;-79
2023/03/06 01:11:44;;;;;;;8.32;4.78;;;;;;;1.49;96.33;100757.78;4953704;29;20035;-79
2023/03/06 01:14:09;;;;;;;8.45;4.07;;;;;;;1.45;96.18;100749.91;4946882;29;20082;-79
2023/03/06 01:16:35;;;;;;;10.63;4.82;;;;;;;1.46;96.78;100762.38;4951824;29;20458;-78
2023/03/06 01:19:00;;;;;;;10.52;5.20;;;;;;;1.44;96.34;100753.50;4952026;29;20067;-79
2023/03/06 01:21:26;;;;;;;8.00;4.60;;;;;;;1.42;96.55;100752.69;4953341;29;20042;-79
2023/03/06 01:23:51;;;;;;;8.57;4.97;;;;;;;1.42;97.02;100750.00;4951745;29;20654;-78
2023/03/06 01:26:17;;;;;;;8.80;5.10;;;;;;;1.36;97.22;100753.78;4953351;29;20039;-77
2023/03/06 01:28:42;;;;;;;9.50;4.68;;;;;;;1.30;97.17;100742.41;4935768;29;20086;-79
2023/03/06 01:31:08;;;;;;;10.98;5.55;;;;;;;1.27;97.39;100746.97;4953297;28;20482;-79
2023/03/06 01:33:34;;;;;;;10.27;5.13;;;;;;;1.24;97.38;100751.53;4935652;29;20031;-78
2023/03/06 01:36:07;;;;;;;8.20;4.93;;;;;;;1.20;97.26;100748.09;4953780;29;20045;-79
2023/03/06 01:38:33;;;;;;;9.85;5.40;;;;;;;1.18;97.42;100749.09;4951370;28;20031;-77
2023/03/06 01:40:59;;;;;;;10.82;5.07;;;;;;;1.10;97.94;100738.63;4953429;29;20035;-78
2023/03/06 01:43:27;;;;;;;12.20;5.53;;;;;;;1.07;97.83;100743.22;4951341;28;20035;-78
2023/03/06 01:46:16;;;;;;;9.20;5.60;;;;;;;1.04;97.50;100746.03;4951017;28;20031;-77
2023/03/06 01:48:43;;;;;;;10.05;5.22;;;;;;;0.99;97.92;100735.47;4940192;29;20047;-78
2023/03/06 01:51:09;;;;;;;9.57;5.38;;;;;;;0.94;97.98;100729.41;4952855;29;20038;-79
2023/03/06 01:53:35;;;;;;;11.43;5.72;;;;;;;0.92;98.30;100725.88;4951984;28;20084;-78
2023/03/06 01:56:01;;;;;;;9.57;5.68;;;;;;;0.88;98.49;100722.41;4952694;28;20039;-78
2023/03/06 01:58:27;;;;;;;11.63;5.72;;;;;;;0.84;98.48;100726.16;4933126;29;20109;-78
2023/03/06 02:00:53;;;;;;;9.88;5.47;;;;;;;0.81;98.81;100714.69;4950140;29;20509;-78
2023/03/06 02:03:22;;;;;;;10.45;4.82;;;;;;;0.78;98.33;100715.63;4949645;28;20069;-79
2023/03/06 02:05:47;;;;;;;8.68;5.20;;;;;;;0.73;98.76;100712.25;4951152;29;20512;-77
2023/03/06 02:08:16;;;;;;;16.20;5.97;;;;;;;0.70;98.76;100717.69;4951350;29;20102;-78
2023/03/06 02:10:55;;;;;;;10.45;5.45;;;;;;;0.67;99.11;100712.47;4952557;28;20062;-78
2023/03/06 02:13:21;;;;;;;10.50;6.13;;;;;;;0.62;99.43;100714.44;4952127;28;20047;-78
2023/03/06 02:15:50;;;;;;;11.75;6.15;;;;;;;0.57;99.50;100709.22;4958921;28;20034;-78
2023/03/06 02:18:15;;;;;;;13.30;6.85;;;;;;;0.58;99.68;100710.97;4952316;28;20406;-77
2023/03/06 02:20:53;;;;;;;10.80;5.50;;;;;;;0.54;99.68;100706.66;4951137;29;20182;-78
2023/03/06 02:23:32;;;;;;;13.48;6.25;;;;;;;0.52;100.00;100704.97;4952207;28;20372;-78
2023/03/06 02:26:00;;;;;;;13.18;6.07;;;;;;;0.46;99.75;100698.00;4951342;29;20503;-78
2023/03/06 02:28:26;;;;;;;9.15;5.55;;;;;;;0.43;100.00;100696.31;4938287;29;20035;-78
2023/03/06 02:30:53;;;;;;;12.63;6.20;;;;;;;0.42;99.98;100690.97;4940793;29;20518;-77
2023/03/06 02:33:23;;;;;;;10.60;4.90;;;;;;;0.38;100.00;100690.22;4935088;29;20023;-78
2023/03/06 02:35:51;;;;;;;10.48;5.53;;;;;;;0.36;100.00;100685.84;4950870;29;20510;-77
2023/03/06 02:38:19;;;;;;;10.35;5.68;;;;;;;0.34;100.00;100685.91;4950714;28;20039;-78
2023/03/06 02:40:48;;;;;;;14.43;5.95;;;;;;;0.32;100.00;100676.16;4950763;29;20927;-76
2023/03/06 02:43:17;;;;;;;11.27;5.35;;;;;;;0.32;100.00;100681.53;4948246;29;20035;-78
2023/03/06 02:45:46;;;;;;;14.95;5.70;;;;;;;0.30;100.00;100680.72;4950177;28;20395;-77
2023/03/06 02:48:13;;;;;;;10.65;5.80;;;;;;;0.23;99.82;100670.22;4949582;29;20396;-78
2023/03/06 02:50:39;;;;;;;11.00;5.13;;;;;;;0.22;99.58;100670.25;4950545;29;20549;-77
2023/03/06 02:53:06;;;;;;;11.30;6.03;;;;;;;0.20;99.70;100681.00;4953859;28;20046;-77
2023/03/06 02:55:33;;;;;;;11.10;5.95;;;;;;;0.17;99.88;100670.41;4953373;28;20111;-78
2023/03/06 02:57:59;;;;;;;12.05;6.18;;;;;;;0.16;100.00;100676.69;4949267;28;20044;-77
2023/03/06 03:00:26;;;;;;;12.30;6.40;;;;;;;0.12;100.00;100671.47;4950356;28;20061;-77
2023/03/06 03:02:52;;;;;;;12.15;6.45;;;;;;;0.10;100.00;100674.22;4949998;28;20255;-78
2023/03/06 03:05:18;;;;;;;13.07;5.97;;;;;;;0.10;100.00;100671.53;4918213;29;20562;-78
2023/03/06 03:07:48;;;;;;;10.85;6.03;;;;;;;0.09;100.00;100663.53;4918646;29;20337;-78
2023/03/06 03:10:13;;;;;;;10.23;4.90;;;;;;;0.09;99.82;100658.19;4949759;28;20131;-77
2023/03/06 03:12:39;;;;;;;12.88;5.40;;;;;;;0.05;100.00;100661.88;4950809;28;20031;-77
2023/03/06 03:15:06;;;;;;;13.00;6.72;;;;;;;0.05;100.00;100657.44;4949081;28;20141;-77
2023/03/06 03:17:34;;;;;;;10.70;5.47;;;;;;;0.03;100.00;100651.25;4933941;29;20562;-77
2023/03/06 03:20:01;;;;;;;9.90;5.53;;;;;;;0.01;100.00;100661.13;4948886;29;20069;-77
2023/03/06 03:22:28;;;;;;;10.57;6.07;;;;;;;0.00;100.00;100662.06;4950158;29;20027;-77
2023/03/06 03:24:53;;;;;;;9.00;5.00;;;;;;;-0.03;99.89;100655.00;4946131;29;20034;-77
2023/03/06 03:27:19;;;;;;;12.00;6.85;;;;;;;-0.05;100.00;100645.25;4949731;29;20062;-77
2023/03/06 03:29:45;;;;;;;10.57;5.65;;;;;;;-0.07;100.00;100649.81;4950552;28;20043;-77
2023/03/06 03:32:10;;;;;;;13.38;6.00;;;;;;;-0.08;100.00;100645.38;4965267;28;20035;-77
2023/03/06 03:34:36;;;;;;;10.25;5.25;;;;;;;-0.10;100.00;100639.19;4933253;29;20059;-78
2023/03/06 03:37:02;;;;;;;13.88;5.60;;;;;;;-0.11;100.00;100637.44;4950059;29;20412;-79
2023/03/06 03:39:27;;;;;;;11.27;5.55;;;;;;;-0.13;100.00;100624.16;4949973;29;20116;-79
2023/03/06 03:41:53;;;;;;;13.38;5.85;;;;;;;-0.14;100.00;100629.50;4954799;28;20118;-80
2023/03/06 03:44:19;;;;;;;11.27;6.38;;;;;;;-0.16;100.00;100626.91;4948717;28;20039;-80
2023/03/06 03:46:44;;;;;;;12.32;5.80;;;;;;;-0.19;100.00;100615.44;4949062;28;20530;-79
2023/03/06 03:49:15;;;;;;;13.57;5.88;;;;;;;-0.18;100.00;100618.06;4949179;28;20042;-80
2023/03/06 03:51:42;;;;;;;10.43;5.53;;;;;;;-0.19;100.00;100618.97;4952610;28;20058;-79
2023/03/06 03:54:09;;;;;;;14.32;5.85;;;;;;;-0.18;100.00;100617.19;4968562;28;20058;-78
2023/03/06 03:56:39;;;;;;;9.70;5.25;;;;;;;-0.24;100.00;100606.69;4960502;28;20023;-80
2023/03/06 03:59:10;;;;;;;13.23;6.05;;;;;;;-0.20;100.00;100603.88;4943390;28;20134;-80
2023/03/06 04:01:44;;;;;;;11.00;5.18;;;;;;;-0.22;100.00;100603.06;4949449;28;20558;-78
2023/03/06 04:04:10;;;;;;;11.82;5.95;;;;;;;-0.27;100.00;100603.19;4949258;28;20043;-79
2023/03/06 04:06:37;;;;;;;16.73;7.18;;;;;;;-0.24;100.00;100609.34;4933777;29;20038;-80
2023/03/06 04:09:03;;;;;;;14.10;6.13;;;;;;;-0.23;100.00;100605.75;4949478;29;20427;-79
2023/03/06 04:11:29;;;;;;;13.15;5.78;;;;;;;-0.23;100.00;100598.63;4949663;29;20038;-79
2023/03/06 04:13:55;;;;;;;15.80;6.40;;;;;;;-0.24;100.00;100599.53;4948560;28;20435;-78
2023/03/06 04:16:20;;;;;;;16.58;6.97;;;;;;;-0.24;100.00;100594.19;4933589;29;20510;-80
2023/03/06 04:18:46;;;;;;;14.20;6.93;;;;;;;-0.23;100.00;100595.97;4933862;29;20364;-80
2023/03/06 04:21:12;;;;;;;19.23;8.05;;;;;;;-0.19;100.00;100597.59;4950669;29;20073;-79
2023/03/06 04:23:37;;;;;;;15.15;6.50;;;;;;;-0.19;100.00;100594.91;4932897;28;20089;-79
2023/03/06 04:26:04;;;;;;;15.63;7.13;;;;;;;-0.17;100.00;100589.53;4933987;29;20031;-80
2023/03/06 04:28:31;;;;;;;19.52;7.68;;;;;;;-0.16;100.00;100588.59;4937071;29;20023;-80
2023/03/06 04:30:57;;;;;;;18.73;7.90;;;;;;;-0.17;100.00;100586.88;4953365;28;20061;-78
2023/03/06 04:33:23;;;;;;;18.83;7.95;;;;;;;-0.14;100.00;100582.31;4952734;28;20121;-79
2023/03/06 04:35:49;;;;;;;26.85;10.38;;;;;;;-0.11;100.00;100586.66;4952863;29;20152;-79
2023/03/06 04:38:20;;;;;;;20.23;8.75;;;;;;;-0.07;100.00;100585.63;4952981;29;20042;-80
2023/03/06 04:40:46;;;;;;;18.85;8.52;;;;;;;-0.01;100.00;100582.75;4952665;28;20035;-79
2023/03/06 04:43:11;;;;;;;19.45;8.95;;;;;;;0.02;100.00;100581.78;4952448;28;20114;-79
2023/03/06 04:45:36;;;;;;;19.77;8.25;;;;;;;0.02;100.00;100577.31;4958102;28;20027;-78
2023/03/06 04:48:02;;;;;;;25.45;9.95;;;;;;;0.08;100.00;100573.53;4952782;28;20031;-78
2023/03/06 04:50:31;;;;;;;20.88;8.48;;;;;;;0.10;100.00;100563.69;4953167;29;20039;-76
2023/03/06 04:52:58;;;;;;;24.27;9.25;;;;;;;0.11;100.00;100568.09;4952767;29;20043;-78
2023/03/06 04:55:24;;;;;;;21.67;9.07;;;;;;;0.12;100.00;100561.81;4955404;28;20063;-78
2023/03/06 04:57:49;;;;;;;23.33;9.45;;;;;;;0.12;100.00;100564.50;4951820;28;20047;-79
2023/03/06 05:00:18;;;;;;;21.58;9.57;;;;;;;0.17;100.00;100567.88;4952548;28;20050;-79
2023/03/06 05:02:44;;;;;;;22.23;9.77;;;;;;;0.17;100.00;100568.75;4952483;29;20376;-80
2023/03/06 05:05:10;;;;;;;24.00;10.65;;;;;;;0.19;100.00;100563.38;4953767;28;20459;-79
2023/03/06 05:07:36;;;;;;;26.35;10.27;;;;;;;0.20;100.00;100570.47;4952243;29;20063;-79
2023/03/06 05:10:02;;;;;;;23.73;10.75;;;;;;;0.16;100.00;100558.13;4952288;28;20023;-80
2023/03/06 05:12:27;;;;;;;22.63;10.18;;;;;;;0.21;100.00;100557.03;4953521;28;20388;-80
2023/03/06 05:14:53;;;;;;;25.50;10.57;;;;;;;0.23;100.00;100559.63;4953497;28;20175;-79
2023/03/06 05:17:18;;;;;;;23.90;11.13;;;;;;;0.23;100.00;100560.53;4953843;29;20043;-79
2023/03/06 05:19:43;;;;;;;22.20;9.73;;;;;;;0.25;100.00;100556.00;4953337;28;20095;-80
2023/03/06 05:22:09;;;;;;;28.98;10.25;;;;;;;0.29;100.00;100556.78;4952268;29;20050;-80
2023/03/06 05:24:34;;;;;;;26.90;10.63;;;;;;;0.30;100.00;100554.97;4952695;28;20039;-80
2023/03/06 05:26:59;;;;;;;29.10;11.57;;;;;;;0.30;100.00;100554.97;4952731;29;20042;-80
2023/03/06 05:29:25;;;;;;;31.33;10.80;;;;;;;0.26;100.00;100540.81;4950602;29;20502;-81
2023/03/06 05:31:51;;;;;;;26.92;10.35;;;;;;;0.31;100.00;100552.22;4952947;28;20043;-81
2023/03/06 05:34:16;;;;;;;24.35;10.45;;;;;;;0.32;100.00;100547.75;4951777;28;20121;-80
2023/03/06 05:36:42;;;;;;;27.90;11.00;;;;;;;0.32;100.00;100540.59;4951763;29;20043;-81
2023/03/06 05:39:07;;;;;;;30.70;12.18;;;;;;;0.31;100.00;100541.53;4952808;28;20035;-80
2023/03/06 05:41:33;;;;;;;34.42;12.40;;;;;;;0.32;100.00;100545.06;4953228;29;20046;-81
2023/03/06 05:43:59;;;;;;;23.23;10.38;;;;;;;0.34;100.00;100544.09;4950784;29;20039;-79
2023/03/06 05:46:24;;;;;;;28.20;10.65;;;;;;;0.35;100.00;100547.66;4956810;28;20445;-79
2023/03/06 05:48:52;;;;;;;28.85;11.80;;;;;;;0.35;100.00;100550.31;4952768;28;20042;-80
2023/03/06 05:51:18;;;;;;;26.20;11.50;;;;;;;0.37;100.00;100541.31;4954763;28;20042;-80
2023/03/06 05:53:43;;;;;;;30.90;11.68;;;;;;;0.38;100.00;100532.38;4968757;28;20053;-81
2023/03/06 05:56:09;;;;;;;28.77;12.07;;;;;;;0.39;100.00;100534.09;4965840;28;20390;-80
2023/03/06 05:58:35;;;;;;;30.08;12.07;;;;;;;0.39;100.00;100534.09;4949519;28;20054;-80
2023/03/06 06:01:08;;;;;;;31.65;12.82;;;;;;;0.38;100.00;100532.38;4952958;28;20046;-80
2023/03/06 06:03:33;;;;;;;30.27;12.93;;;;;;;0.41;100.00;100534.91;4965654;28;20030;-80
2023/03/06 06:06:02;;;;;;;30.95;12.25;;;;;;;0.40;100.00;100533.19;4966568;28;20101;-80
2023/03/06 06:08:28;;;;;;;32.05;11.25;;;;;;;0.44;100.00;100534.81;4977282;28;20526;-81
2023/03/06 06:10:53;;;;;;;30.45;13.27;;;;;;;0.46;100.00;100534.75;4964318;28;20118;-80
2023/03/06 06:13:18;;;;;;;34.97;13.45;;;;;;;0.48;100.00;100536.47;4950689;28;20077;-79
2023/03/06 06:15:44;;;;;;;34.78;12.57;;;;;;;0.48;100.00;100533.78;4950899;28;20022;-80
2023/03/06 06:18:09;;;;;;;34.47;13.57;;;;;;;0.49;100.00;100534.66;4965735;28;20039;-80
2023/03/06 06:20:36;;;;;;;29.63;11.98;;;;;;;0.50;100.00;100529.22;4978394;28;20150;-80
2023/03/06 06:23:02;;;;;;;36.70;12.88;;;;;;;0.47;100.00;100524.00;4948697;28;20030;-79
2023/03/06 06:25:27;;;;;;;31.10;13.15;;;;;;;0.52;100.00;100531.88;4968766;28;20493;-80
2023/03/06 06:27:55;;;;;;;33.90;13.32;;;;;;;0.54;100.00;100529.13;4945276;28;20415;-80
2023/03/06 06:30:21;;;;;;;34.78;14.07;;;;;;;0.56;100.00;100521.91;4949320;28;20035;-78
2023/03/06 06:32:47;;;;;;;29.20;12.70;;;;;;;0.56;100.00;100524.59;4948390;28;20589;-79
2023/03/06 06:35:12;;;;;;;34.67;14.77;;;;;;;0.58;100.00;100528.97;4965199;28;20117;-80
2023/03/06 06:37:38;;;;;;;30.80;12.32;;;;;;;0.62;100.00;100530.59;4967481;28;20030;-80
2023/03/06 06:40:04;;;;;;;32.80;14.18;;;;;;;0.62;100.00;100530.59;4953864;28;20038;-79
2023/03/06 06:42:29;;;;;;;31.60;13.20;;;;;;;0.66;100.00;100526.88;4950316;28;20356;-80
2023/03/06 06:44:54;;;;;;;33.90;13.75;;;;;;;0.69;100.00;100532.09;4951790;28;20031;-78
2023/03/06 06:47:20;;;;;;;33.00;12.90;;;;;;;0.74;100.00;100537.28;4950732;29;20031;-79
2023/03/06 06:49:52;;;;;;;36.35;14.23;;;;;;;0.74;100.00;100530.13;4948980;28;20185;-77
2023/03/06 06:52:18;;;;;;;31.83;12.32;;;;;;;0.79;100.00;100524.59;4951969;29;20039;-79
2023/03/06 06:54:43;;;;;;;34.83;14.10;;;;;;;0.85;100.00;100526.22;4948889;29;20039;-79
2023/03/06 06:57:10;;;;;;;33.03;13.20;;;;;;;0.88;100.00;100532.28;4934153;28;20559;-79
2023/03/06 06:59:36;;;;;;;31.33;13.07;;;;;;;0.94;100.00;100533.91;4951334;28;20043;-80
2023/03/06 07:02:01;;;;;;;34.42;14.20;;;;;;;0.97;100.00;100528.41;4951864;28;20254;-78
2023/03/06 07:04:26;;;;;;;31.67;13.43;;;;;;;1.00;100.00;100525.63;4949960;28;20444;-79
2023/03/06 07:06:54;;;;;;;37.05;15.00;;;;;;;1.07;100.00;100545.00;4934461;29;20431;-78
2023/03/06 07:09:21;;;;;;;32.75;13.88;;;;;;;1.10;100.00;100540.41;4950144;29;20037;-78
2023/03/06 07:11:46;;;;;;;29.83;13.07;;;;;;;1.14;100.00;100535.81;4946667;28;20394;-77
2023/03/06 07:14:12;;;;;;;32.58;14.15;;;;;;;1.15;100.00;100540.22;4948771;29;20054;-79
2023/03/06 07:16:37;;;;;;;32.88;13.35;;;;;;;1.20;100.00;100538.22;4934478;29;20483;-80
2023/03/06 07:19:03;;;;;;;34.20;14.30;;;;;;;1.23;100.00;100530.09;4959763;28;20049;-79
2023/03/06 07:21:28;;;;;;;35.95;14.52;;;;;;;1.35;100.00;100544.78;4971021;28;20065;-77
2023/03/06 07:23:56;;;;;;;36.47;15.25;;;;;;;1.40;100.00;100545.47;4970463;28;20037;-76
2023/03/06 07:26:22;;;;;;;34.67;13.77;;;;;;;1.44;100.00;100547.97;4948892;29;20049;-78
2023/03/06 07:28:51;;;;;;;37.88;14.82;;;;;;;1.49;100.00;100545.13;4950862;28;20540;-77
2023/03/06 07:31:17;;;;;;;36.30;14.43;;;;;;;1.52;100.00;100548.56;4951214;28;20067;-76
2023/03/06 07:33:43;;;;;;;39.55;14.68;;;;;;;1.53;100.00;100534.22;4933783;29;20038;-76
2023/03/06 07:36:09;;;;;;;36.75;14.65;;;;;;;1.60;100.00;100537.53;4949757;29;20047;-77
2023/03/06 07:38:35;;;;;;;35.55;15.25;;;;;;;1.66;100.00;100541.78;4933518;29;20106;-75
2023/03/06 07:41:00;;;;;;;37.67;16.35;;;;;;;1.71;100.00;100535.28;4949871;28;20487;-77
2023/03/06 07:43:25;;;;;;;34.70;14.80;;;;;;;1.78;100.00;100528.75;4950582;28;20080;-75
2023/03/06 07:45:59;;;;;;;39.55;15.25;;;;;;;1.92;100.00;100541.59;4942571;28;20027;-77
2023/03/06 07:48:26;;;;;;;38.50;15.77;;;;;;;1.94;100.00;100536.13;4948647;29;20065;-76
2023/03/06 07:51:04;;;;;;;35.45;14.80;;;;;;;1.93;100.00;100534.41;4949072;28;20066;-78
2023/03/06 07:53:30;;;;;;;38.47;15.23;;;;;;;2.02;100.00;100547.44;4948590;29;20436;-77
2023/03/06 07:55:55;;;;;;;33.22;14.25;;;;;;;2.03;100.00;100551.84;4950740;29;20551;-76
2023/03/06 07:58:21;;;;;;;38.78;16.75;;;;;;;2.01;100.00;100543.88;4948784;28;20084;-76
2023/03/06 08:00:46;;;;;;;38.92;15.55;;;;;;;2.03;100.00;100535.75;4950231;28;20040;-77
2023/03/06 08:03:12;;;;;;;41.25;17.45;;;;;;;2.10;100.00;100544.41;4950483;28;20514;-76
2023/03/06 08:05:37;;;;;;;42.30;16.00;;;;;;;2.16;100.00;100536.97;4952074;28;20026;-76
2023/03/06 08:08:03;;;;;;;41.30;16.05;;;;;;;2.28;100.00;100546.31;4950795;28;20043;-76
2023/03/06 08:10:28;;;;;;;37.13;14.73;;;;;;;2.36;100.00;100544.16;4968172;28;20034;-76
2023/03/06 08:12:54;;;;;;;41.63;16.20;;;;;;;2.45;100.00;100550.94;4964311;28;20126;-76
2023/03/06 08:15:19;;;;;;;39.65;15.93;;;;;;;2.53;100.00;100544.31;4965717;28;20070;-75
2023/03/06 08:17:44;;;;;;;39.10;16.77;;;;;;;2.61;100.00;100538.59;4969171;28;20030;-77
2023/03/06 08:20:11;;;;;;;37.78;16.00;;;;;;;2.70;100.00;100543.53;4966715;28;20102;-77
2023/03/06 08:22:37;;;;;;;38.83;16.35;;;;;;;2.79;100.00;100547.63;4966615;28;20521;-76
2023/03/06 08:25:04;;;;;;;40.42;14.90;;;;;;;2.78;100.00;100546.75;4968020;28;20049;-75
2023/03/06 08:27:31;;;;;;;39.38;15.68;;;;;;;2.78;100.00;100538.69;4965871;28;20559;-75
2023/03/06 08:29:58;;;;;;;39.17;16.42;;;;;;;2.76;100.00;100545.09;4950603;28;20395;-76
2023/03/06 08:32:24;;;;;;;37.38;15.70;;;;;;;2.74;100.00;100546.97;4951643;28;20018;-76
2023/03/06 08:34:49;;;;;;;36.30;14.95;;;;;;;2.74;100.00;100544.28;4966379;28;20038;-75
2023/03/06 08:37:15;;;;;;;39.25;16.95;;;;;;;2.77;100.00;100553.06;4951677;28;20499;-76
2023/03/06 08:39:40;;;;;;;41.13;16.15;;;;;;;2.87;100.00;100548.16;4951057;28;20579;-77
2023/03/06 08:42:06;;;;;;;42.88;15.85;;;;;;;2.99;100.00;100549.44;4951210;28;20061;-75
2023/03/06 08:44:33;;;;;;;36.45;15.57;;;;;;;3.28;100.00;100550.75;4951333;28;20030;-75
2023/03/06 08:46:58;;;;;;;40.55;17.15;;;;;;;3.46;100.00;100543.63;4952274;28;20495;-77
2023/03/06 08:49:24;;;;;;;39.25;17.48;;;;;;;3.59;100.00;100542.09;4950356;28;20037;-76
2023/03/06 08:51:49;;;;;;;35.67;15.30;;;;;;;3.80;100.00;100545.53;4932639;28;20058;-77
2023/03/06 08:54:15;;;;;;;35.40;15.00;;;;;;;3.96;100.00;100542.94;4950036;29;20163;-76
2023/03/06 08:56:40;;;;;;;33.95;14.93;;;;;;;4.00;100.00;100549.94;4950061;29;20039;-77
2023/03/06 08:59:08;;;;;;;32.72;14.32;;;;;;;4.05;99.25;100551.44;4956157;28;20058;-76
2023/03/06 09:01:36;;;;;;;30.67;14.57;;;;;;;4.10;99.03;100551.19;4949860;28;20050;-77
2023/03/06 09:04:05;;;;;;;33.53;15.02;;;;;;;4.17;98.80;100551.78;4950181;28;20082;-75
2023/03/06 09:06:34;;;;;;;35.72;15.25;;;;;;;4.30;99.60;100548.38;4950393;29;20050;-76
2023/03/06 09:09:00;;;;;;;31.77;14.02;;;;;;;4.45;99.25;100552.09;4950906;28;20027;-76
2023/03/06 09:11:26;;;;;;;31.40;14.75;;;;;;;4.56;97.88;100554.22;4959655;28;20061;-78
2023/03/06 09:13:53;;;;;;;28.55;13.65;;;;;;;4.66;98.19;100549.22;4951346;28;20282;-76
2023/03/06 09:16:18;;;;;;;29.67;14.52;;;;;;;4.72;97.22;100551.63;4951106;29;20353;-76
2023/03/06 09:18:44;;;;;;;30.65;13.82;;;;;;;4.83;97.45;100555.47;4952006;28;20026;-75
2023/03/06 09:21:09;;;;;;;26.63;12.50;;;;;;;4.92;97.26;100547.84;4953503;29;20039;-76
2023/03/06 09:23:38;;;;;;;30.70;12.30;;;;;;;4.95;95.73;100553.09;4953459;29;20039;-76
2023/03/06 09:26:04;;;;;;;25.63;12.10;;;;;;;4.93;95.40;100554.97;4951608;28;20059;-76
2023/03/06 09:28:30;;;;;;;22.92;11.65;;;;;;;4.86;95.41;100551.75;4961487;28;20077;-76
2023/03/06 09:30:56;;;;;;;23.98;12.13;;;;;;;4.80;95.16;100547.56;4953865;28;20466;-77
2023/03/06 09:33:21;;;;;;;24.92;13.02;;;;;;;4.80;95.38;100558.34;4968456;28;20273;-78
2023/03/06 09:35:49;;;;;;;25.42;12.25;;;;;;;4.80;95.01;100552.06;4969483;28;20031;-76
2023/03/06 09:38:16;;;;;;;25.83;12.52;;;;;;;4.81;94.99;100552.00;4971136;28;20117;-76
2023/03/06 09:40:51;;;;;;;27.25;12.48;;;;;;;4.79;94.31;100553.03;4955071;28;20502;-78
2023/03/06 09:43:43;;;;;;;23.85;12.88;;;;;;;4.78;93.94;100562.94;4933510;29;20034;-77
2023/03/06 09:46:21;;;;;;;21.33;10.68;;;;;;;4.81;94.89;100559.22;4941000;29;20076;-78
2023/03/06 09:49:10;;;;;;;22.27;11.05;;;;;;;4.80;94.06;100557.44;4950779;29;20109;-78
2023/03/06 09:51:49;;;;;;;24.98;12.30;;;;;;;4.74;93.53;100550.56;4951544;28;20046;-76
2023/03/06 09:54:15;;;;;;;25.98;10.63;;;;;;;4.67;92.89;100553.69;4951589;29;20356;-76
2023/03/06 09:56:49;;;;;;;21.58;10.73;;;;;;;4.63;93.39;100557.50;4953100;29;20031;-76
2023/03/06 09:59:23;;;;;;;25.08;11.73;;;;;;;4.57;92.71;100548.78;4951098;28;20173;-76
2023/03/06 10:02:18;;;;;;;22.83;11.23;;;;;;;4.58;93.64;100555.03;4951308;28;20039;-76
2023/03/06 10:04:49;;;;;;;21.15;11.15;;;;;;;4.62;94.20;100553.94;4945443;28;20199;-76
2023/03/06 10:07:24;;;;;;;21.52;10.38;;;;;;;4.65;93.79;100551.06;4952733;29;20534;-78
2023/03/06 10:09:56;;;;;;;18.92;11.23;;;;;;;4.73;94.03;100556.91;4957403;28;20038;-78
2023/03/06 10:12:28;;;;;;;23.38;11.77;;;;;;;4.88;94.13;100543.56;4952419;28;20192;-78
2023/03/06 10:15:16;;;;;;;20.85;10.93;;;;;;;5.03;94.64;100550.81;4959770;28;20045;-77
2023/03/06 10:17:43;;;;;;;24.70;10.88;;;;;;;5.13;93.17;100549.41;4959909;28;20461;-78
2023/03/06 10:20:17;;;;;;;22.50;10.82;;;;;;;5.19;92.76;100540.97;4949671;29;20039;-79
2023/03/06 10:23:07;;;;;;;20.13;10.70;;;;;;;5.35;92.97;100549.94;4949276;29;20097;-77
2023/03/06 10:25:48;;;;;;;21.55;10.20;;;;;;;5.44;92.20;100544.97;4950247;28;20027;-79
2023/03/06 10:28:27;;;;;;;23.50;10.30;;;;;;;5.56;91.01;100550.56;4949806;28;20047;-78
2023/03/06 10:31:02;;;;;;;21.38;10.73;;;;;;;5.67;91.82;100541.84;4950106;28;20505;-79
2023/03/06 10:33:43;;;;;;;21.83;11.05;;;;;;;5.81;90.83;100541.06;4942348;28;20061;-77
2023/03/06 10:36:15;;;;;;;21.92;11.25;;;;;;;5.96;91.18;100532.09;4950501;29;20045;-79
2023/03/06 10:38:43;;;;;;;19.50;9.63;;;;;;;6.09;89.75;100533.13;4938181;28;20368;-78
2023/03/06 10:41:11;;;;;;;22.70;10.73;;;;;;;6.23;88.91;100534.16;4937199;28;20070;-77
2023/03/06 10:43:42;;;;;;;20.98;10.65;;;;;;;6.43;88.61;100530.25;4967714;28;20162;-78
2023/03/06 10:46:10;;;;;;;20.42;11.23;;;;;;;6.53;87.06;100539.56;4960569;28;20055;-77
2023/03/06 10:48:38;;;;;;;20.33;10.23;;;;;;;6.62;86.15;100533.56;4964882;28;20050;-77
2023/03/06 10:51:16;;;;;;;18.83;9.45;;;;;;;6.70;85.97;100533.09;4961154;28;20031;-78
2023/03/06 10:53:47;;;;;;;20.83;9.43;;;;;;;6.78;86.13;100533.50;4946406;28;20060;-79
2023/03/06 10:56:25;;;;;;;19.55;9.80;;;;;;;6.87;85.10;100539.22;4971069;28;20054;-77
2023/03/06 10:59:12;;;;;;;15.55;8.68;;;;;;;7.10;85.37;100531.50;4946813;28;20047;-78
2023/03/06 11:01:39;;;;;;;16.92;9.15;;;;;;;7.19;84.08;100527.34;4950997;28;20545;-78
2023/03/06 11:04:27;;;;;;;23.38;9.45;;;;;;;7.29;84.48;100531.19;4950418;28;20027;-76
2023/03/06 11:07:20;;;;;;;17.15;9.57;;;;;;;7.24;84.13;100534.19;4968921;28;20089;-77
2023/03/06 11:09:57;;;;;;;19.80;9.80;;;;;;;7.26;83.87;100539.50;4967312;28;20133;-76
2023/03/06 11:12:35;;;;;;;14.65;8.07;;;;;;;7.22;81.24;100535.25;4960073;28;20528;-77
2023/03/06 11:15:07;;;;;;;14.52;7.97;;;;;;;7.29;81.08;100537.47;4949480;28;20482;-77
2023/03/06 11:17:46;;;;;;;17.80;9.25;;;;;;;7.37;82.01;100528.88;4959962;28;20046;-78
2023/03/06 11:20:15;;;;;;;20.48;9.18;;;;;;;7.39;80.54;100532.34;4952997;28;20077;-78